Time;durP1;ratioP1;P1;durP2;ratioP2;P2;SDS_P1;SDS_P2;PMS_P1;PMS_P2;Temp;Humidity;BMP_temperature;BMP_pressure;BME280_temperature;BME280_humidity;BME280_pressure;Samples;Min_cycle;Max_cycle;Signal;HPM_P1;HPM_P2
2022/02/23 00:00:43;;;;;;;0.00;0.00;;;;;;;;;;5031875;28;20250;-75
2022/02/23 00:03:12;;;;;;;0.00;0.00;;;;;;;;;;5030702;28;20220;-75
2022/02/23 00:05:39;;;;;;;0.00;0.00;;;;;;;;;;5024254;28;20577;-76
2022/02/23 00:08:07;;;;;;;0.40;0.13;;;;;;;;;;5029666;28;20673;-75
2022/02/23 00:10:34;;;;;;;0.00;0.00;;;;;;;;;;5031857;28;20208;-73
2022/02/23 00:13:02;;;;;;;0.00;0.00;;;;;;;;;;5039037;28;20253;-76
2022/02/23 00:15:29;;;;;;;0.20;0.20;;;;;;;;;;5032149;28;20657;-74
2022/02/23 00:17:57;;;;;;;0.00;0.00;;;;;;;;;;5030307;28;20197;-75
2022/02/23 00:20:25;;;;;;;0.00;0.00;;;;;;;;;;5035568;28;20208;-76
2022/02/23 00:22:53;;;;;;;0.00;0.00;;;;;;;;;;5045609;28;20223;-75
2022/02/23 00:25:21;;;;;;;0.20;0.00;;;;;;;;;;5032479;28;20201;-75
2022/02/23 00:27:48;;;;;;;0.00;0.00;;;;;;;;;;5026949;28;20270;-76
2022/02/23 05:40:00;;;;;;;0.00;0.00;;;;;;;;;;5073498;27;20588;-76
2022/02/23 05:42:28;;;;;;;0.40;0.40;;;;;;;;;;5077017;28;20198;-75
2022/02/23 05:44:55;;;;;;;0.00;0.00;;;;;;;;;;5086274;28;20198;-75
2022/02/23 05:47:22;;;;;;;0.00;0.00;;;;;;;;;;5087539;28;20202;-76
2022/02/23 05:49:50;;;;;;;0.83;0.83;;;;;;;;;;5088308;28;20232;-76
2022/02/23 05:52:19;;;;;;;0.00;0.00;;;;;;;;;;5075768;28;20206;-74
2022/02/23 05:54:46;;;;;;;0.00;0.00;;;;;;;;;;5087905;28;20199;-74
2022/02/23 05:57:15;;;;;;;0.00;0.00;;;;;;;;;;5092038;28;20604;-74
2022/02/23 05:59:43;;;;;;;0.00;0.00;;;;;;;;;;5109079;28;20197;-74
2022/02/23 06:02:10;;;;;;;0.00;0.00;;;;;;;;;;5087519;28;20206;-74
2022/02/23 06:04:37;;;;;;;0.00;0.00;;;;;;;;;;5081898;28;20695;-74
2022/02/23 06:07:06;;;;;;;0.00;0.00;;;;;;;;;;5087470;28;20213;-76
2022/02/23 06:09:33;;;;;;;0.00;0.00;;;;;;;;;;5087995;28;20233;-73
2022/02/23 06:12:01;;;;;;;0.00;0.00;;;;;;;;;;5083284;28;20240;-74
2022/02/23 06:14:31;;;;;;;0.00;0.00;;;;;;;;;;5069503;28;20419;-75
2022/02/23 06:16:58;;;;;;;0.00;0.00;;;;;;;;;;5086186;28;20198;-74
2022/02/23 06:19:26;;;;;;;0.10;0.10;;;;;;;;;;5105608;28;20198;-75
2022/02/23 06:21:53;;;;;;;0.00;0.00;;;;;;;;;;5071237;28;20609;-73
2022/02/23 06:24:21;;;;;;;0.00;0.00;;;;;;;;;;5080172;28;20198;-74
2022/02/23 06:26:49;;;;;;;0.00;0.00;;;;;;;;;;5088319;28;20202;-74
2022/02/23 06:29:16;;;;;;;0.00;0.00;;;;;;;;;;5087153;28;20222;-74
2022/02/23 06:31:57;;;;;;;0.00;0.00;;;;;;;;;;5069066;28;20203;-73
2022/02/23 06:34:24;;;;;;;0.00;0.00;;;;;;;;;;5067403;28;20198;-74
2022/02/23 06:36:52;;;;;;;0.00;0.00;;;;;;;;;;5069174;28;20199;-74
2022/02/23 06:39:20;;;;;;;0.00;0.00;;;;;;;;;;5087520;28;20242;-74
2022/02/23 06:41:47;;;;;;;0.00;0.00;;;;;;;;;;5081547;28;20214;-74
2022/02/23 06:44:14;;;;;;;0.00;0.00;;;;;;;;;;5067651;28;20214;-73
2022/02/23 06:46:42;;;;;;;0.00;0.00;;;;;;;;;;5067278;28;20199;-74
2022/02/23 06:49:11;;;;;;;0.00;0.00;;;;;;;;;;5065803;28;20227;-74
2022/02/23 06:51:38;;;;;;;0.00;0.00;;;;;;;;;;5058954;28;20218;-73
2022/02/23 06:54:05;;;;;;;0.20;0.20;;;;;;;;;;5069008;28;20203;-74
2022/02/23 06:56:33;;;;;;;0.17;0.17;;;;;;;;;;5060850;28;20195;-73
2022/02/23 06:59:00;;;;;;;0.00;0.00;;;;;;;;;;5071878;28;20211;-73
2022/02/23 07:01:27;;;;;;;0.33;0.33;;;;;;;;;;5063419;28;20203;-74
2022/02/23 07:03:55;;;;;;;0.60;0.60;;;;;;;;;;5072198;28;20199;-73
2022/02/23 07:06:23;;;;;;;0.30;0.30;;;;;;;;;;5064816;28;20207;-73
2022/02/23 07:08:52;;;;;;;0.50;0.50;;;;;;;;;;5056696;28;20234;-73
2022/02/23 07:11:20;;;;;;;0.00;0.00;;;;;;;;;;5066312;28;20214;-73
2022/02/23 07:13:47;;;;;;;0.53;0.53;;;;;;;;;;5071873;28;20598;-74
2022/02/23 07:16:15;;;;;;;0.10;0.10;;;;;;;;;;5073152;28;20680;-73
2022/02/23 07:18:42;;;;;;;0.00;0.00;;;;;;;;;;5074387;28;20286;-73
2022/02/23 07:21:10;;;;;;;0.80;0.47;;;;;;;;;;5068919;28;20217;-73
2022/02/23 07:23:39;;;;;;;1.87;1.70;;;;;;;;;;5073675;28;20203;-74
2022/02/23 07:26:06;;;;;;;0.53;0.53;;;;;;;;;;5073357;28;20214;-73
2022/02/23 07:28:34;;;;;;;0.30;0.20;;;;;;;;;;5064373;28;20281;-73
2022/02/23 07:31:03;;;;;;;0.93;0.57;;;;;;;;;;5052854;28;20208;-73
2022/02/23 07:33:30;;;;;;;0.50;0.50;;;;;;;;;;5065863;28;20191;-73
2022/02/23 07:35:58;;;;;;;0.00;0.00;;;;;;;;;;5067617;28;20221;-74
2022/02/23 07:38:25;;;;;;;0.10;0.10;;;;;;;;;;5052927;28;20250;-74
2022/02/23 07:40:54;;;;;;;0.63;0.63;;;;;;;;;;5063346;28;20210;-73
2022/02/23 07:43:21;;;;;;;4.43;1.87;;;;;;;;;;5073179;28;20202;-74
2022/02/23 07:45:53;;;;;;;0.10;0.10;;;;;;;;;;5055845;28;20575;-73
2022/02/23 07:48:20;;;;;;;0.47;0.47;;;;;;;;;;5070155;28;20207;-73
2022/02/23 07:50:47;;;;;;;0.33;0.33;;;;;;;;;;5070285;28;20203;-74
2022/02/23 07:53:15;;;;;;;0.47;0.47;;;;;;;;;;5064389;28;20250;-74
2022/02/23 07:55:43;;;;;;;2.57;2.37;;;;;;;;;;5059028;28;20210;-73
2022/02/23 07:58:12;;;;;;;5.37;1.67;;;;;;;;;;5069580;28;20218;-73
2022/02/23 08:00:39;;;;;;;1.40;1.37;;;;;;;;;;5067764;28;20188;-73
2022/02/23 08:03:08;;;;;;;4.37;2.47;;;;;;;;;;5061561;28;20273;-73
2022/02/23 08:05:36;;;;;;;0.87;0.87;;;;;;;;;;5063341;28;20217;-71
2022/02/23 08:08:03;;;;;;;3.97;1.00;;;;;;;;;;5052675;28;20621;-74
2022/02/23 08:10:30;;;;;;;1.53;1.43;;;;;;;;;;5055428;28;20273;-75
2022/02/23 08:12:58;;;;;;;4.40;3.03;;;;;;;;;;5048709;28;20195;-74
2022/02/23 08:21:16;;;;;;;1.70;1.60;;;;;;;;;;4970761;28;20201;-73
2022/02/23 08:23:45;;;;;;;1.80;1.27;;;;;;;;;;4970932;28;20294;-73
2022/02/23 08:26:12;;;;;;;6.23;3.67;;;;;;;;;;5006119;28;20237;-73
2022/02/23 08:28:40;;;;;;;0.40;0.40;;;;;;;;;;5050683;28;20280;-72
2022/02/23 08:31:08;;;;;;;2.17;1.97;;;;;;;;;;5050624;28;20208;-73
2022/02/23 08:33:36;;;;;;;1.53;1.43;;;;;;;;;;5057845;28;20684;-73
2022/02/23 08:36:03;;;;;;;2.73;0.93;;;;;;;;;;5072688;28;20203;-73
2022/02/23 08:38:31;;;;;;;1.03;1.03;;;;;;;;;;5068931;28;20230;-71
2022/02/23 08:40:58;;;;;;;4.43;3.07;;;;;;;;;;5062694;28;20212;-71
2022/02/23 08:43:25;;;;;;;1.43;1.33;;;;;;;;;;5050636;28;20202;-78
2022/02/23 08:45:53;;;;;;;1.07;0.97;;;;;;;;;;5046467;28;20541;-77
2022/02/23 08:48:22;;;;;;;1.13;1.03;;;;;;;;;;5052340;28;20187;-78
2022/02/23 08:50:49;;;;;;;1.30;0.97;;;;;;;;;;5048743;28;20231;-76
2022/02/23 08:53:16;;;;;;;0.87;0.77;;;;;;;;;;5052354;28;20207;-78
2022/02/23 08:55:44;;;;;;;0.47;0.47;;;;;;;;;;5052482;28;20977;-78
2022/02/23 08:58:14;;;;;;;0.67;0.60;;;;;;;;;;5048346;28;20754;-77
2022/02/23 09:00:42;;;;;;;1.17;1.07;;;;;;;;;;5053468;28;20195;-76
2022/02/23 09:03:09;;;;;;;0.47;0.47;;;;;;;;;;5050082;28;20790;-77
2022/02/23 09:05:38;;;;;;;2.03;1.83;;;;;;;;;;5050438;28;20191;-78
2022/02/23 09:08:05;;;;;;;1.17;0.97;;;;;;;;;;5050524;28;20199;-78
2022/02/23 09:10:33;;;;;;;4.93;2.57;;;;;;;;;;5049908;28;20670;-78
2022/02/23 09:13:00;;;;;;;1.83;1.23;;;;;;;;;;5051461;28;20202;-79
2022/02/23 09:15:27;;;;;;;1.90;1.47;;;;;;;;;;5049649;28;20192;-78
2022/02/23 09:17:55;;;;;;;3.80;1.63;;;;;;;;;;5051639;28;20215;-78
2022/02/23 09:20:22;;;;;;;5.03;1.57;;;;;;;;;;5050824;28;20207;-77
2022/02/23 09:22:51;;;;;;;2.20;1.93;;;;;;;;;;5047047;28;20829;-78
2022/02/23 09:25:18;;;;;;;3.47;2.17;;;;;;;;;;5051978;28;20192;-77
2022/02/23 09:27:46;;;;;;;0.63;0.63;;;;;;;;;;5048360;28;20207;-78
2022/02/23 09:30:14;;;;;;;3.00;2.70;;;;;;;;;;5047448;28;20214;-77
2022/02/23 09:32:42;;;;;;;3.73;2.47;;;;;;;;;;5049277;28;20192;-71
2022/02/23 09:35:10;;;;;;;0.40;0.27;;;;;;;;;;5049076;28;20203;-72
2022/02/23 09:37:38;;;;;;;1.47;1.37;;;;;;;;;;5049623;28;20207;-72
2022/02/23 09:40:09;;;;;;;2.70;0.87;;;;;;;;;;5052123;28;20876;-74
2022/02/23 09:42:36;;;;;;;1.93;1.53;;;;;;;;;;5056000;28;20217;-73
2022/02/23 09:45:05;;;;;;;2.83;0.87;;;;;;;;;;5050925;28;20201;-69
2022/02/23 09:47:32;;;;;;;1.60;1.03;;;;;;;;;;5056810;28;20198;-72
2022/02/23 09:50:00;;;;;;;1.37;1.27;;;;;;;;;;5070431;28;20218;-70
2022/02/23 09:52:27;;;;;;;0.37;0.37;;;;;;;;;;5073904;28;20219;-71
2022/02/23 09:54:58;;;;;;;2.70;2.23;;;;;;;;;;5071660;28;20205;-68
2022/02/23 09:57:26;;;;;;;6.33;1.23;;;;;;;;;;5060208;28;20192;-71
2022/02/23 09:59:54;;;;;;;0.40;0.40;;;;;;;;;;5050761;28;20203;-70
2022/02/23 10:02:21;;;;;;;0.30;0.30;;;;;;;;;;5055027;28;20202;-72
2022/02/23 10:04:49;;;;;;;1.37;1.27;;;;;;;;;;5064027;28;20206;-71
2022/02/23 10:07:16;;;;;;;0.37;0.37;;;;;;;;;;5053228;28;20852;-72
2022/02/23 10:09:44;;;;;;;4.47;0.97;;;;;;;;;;5050432;28;20233;-73
2022/02/23 10:12:19;;;;;;;2.10;0.30;;;;;;;;;;5047842;28;20209;-70
2022/02/23 10:14:49;;;;;;;1.10;1.00;;;;;;;;;;5052090;28;20224;-71
2022/02/23 10:17:37;;;;;;;2.13;1.43;;;;;;;;;;5055152;28;20228;-71
2022/02/23 10:20:05;;;;;;;0.90;0.83;;;;;;;;;;5047757;28;20202;-71
2022/02/23 10:22:32;;;;;;;0.03;0.03;;;;;;;;;;5047296;28;20542;-71
2022/02/23 10:25:00;;;;;;;1.33;0.60;;;;;;;;;;5052745;28;20863;-68
2022/02/23 10:27:34;;;;;;;0.60;0.60;;;;;;;;;;5051208;28;20212;-71
2022/02/23 10:30:02;;;;;;;2.17;0.93;;;;;;;;;;5049682;28;20239;-73
2022/02/23 10:32:30;;;;;;;0.10;0.10;;;;;;;;;;5053713;28;20188;-70
2022/02/23 10:34:59;;;;;;;0.30;0.30;;;;;;;;;;5055847;28;20294;-71
2022/02/23 10:37:28;;;;;;;0.63;0.63;;;;;;;;;;5083755;28;20244;-71
2022/02/23 10:39:57;;;;;;;0.20;0.20;;;;;;;;;;5056697;28;20218;-71
2022/02/23 10:42:26;;;;;;;2.53;0.33;;;;;;;;;;5052481;28;20734;-71
2022/02/23 10:44:55;;;;;;;11.73;1.73;;;;;;;;;;5054293;28;20187;-70
2022/02/23 10:47:24;;;;;;;1.17;0.30;;;;;;;;;;5055718;28;20198;-71
2022/02/23 10:50:06;;;;;;;2.17;0.83;;;;;;;;;;5056637;28;20734;-70
2022/02/23 10:52:34;;;;;;;4.07;0.90;;;;;;;;;;5049414;28;20207;-70
2022/02/23 10:55:26;;;;;;;1.63;0.80;;;;;;;;;;5051308;28;20200;-68
2022/02/23 10:57:59;;;;;;;2.77;0.90;;;;;;;;;;5070213;28;20213;-72
2022/02/23 11:00:27;;;;;;;0.83;0.83;;;;;;;;;;5055437;28;20588;-69
2022/02/23 11:02:56;;;;;;;3.37;1.80;;;;;;;;;;5048377;28;20230;-70
2022/02/23 11:05:24;;;;;;;0.50;0.50;;;;;;;;;;5051005;28;20200;-72
2022/02/23 11:07:52;;;;;;;0.60;0.60;;;;;;;;;;5055141;28;20218;-70
2022/02/23 11:10:20;;;;;;;0.20;0.20;;;;;;;;;;5049495;28;20195;-70
2022/02/23 11:12:48;;;;;;;0.77;0.77;;;;;;;;;;5054674;28;20245;-70
2022/02/23 11:15:19;;;;;;;0.70;0.70;;;;;;;;;;5054192;28;20211;-70
2022/02/23 11:17:47;;;;;;;5.57;1.63;;;;;;;;;;5052258;28;20222;-71
2022/02/23 11:20:18;;;;;;;0.87;0.87;;;;;;;;;;5053554;28;20235;-72
2022/02/23 11:22:49;;;;;;;0.87;0.70;;;;;;;;;;5049944;28;20225;-71
2022/02/23 11:25:17;;;;;;;1.10;1.03;;;;;;;;;;5053167;28;20652;-70
2022/02/23 11:27:45;;;;;;;3.27;1.33;;;;;;;;;;5053099;28;20572;-70
2022/02/23 11:30:15;;;;;;;0.93;0.70;;;;;;;;;;5051037;28;20196;-71
2022/02/23 11:32:43;;;;;;;0.27;0.27;;;;;;;;;;5063510;28;20809;-73
2022/02/23 11:35:12;;;;;;;0.20;0.20;;;;;;;;;;5053808;28;20774;-70
2022/02/23 11:37:41;;;;;;;0.83;0.77;;;;;;;;;;5052025;28;20285;-72
2022/02/23 11:40:09;;;;;;;3.20;0.57;;;;;;;;;;5074547;28;20928;-69
2022/02/23 11:42:37;;;;;;;0.43;0.30;;;;;;;;;;5066507;28;20199;-70
2022/02/23 11:45:09;;;;;;;1.77;1.43;;;;;;;;;;5054943;28;20199;-74
2022/02/23 11:47:46;;;;;;;0.73;0.73;;;;;;;;;;5067585;28;20198;-71
2022/02/23 11:50:18;;;;;;;0.17;0.17;;;;;;;;;;5062028;28;20667;-71
2022/02/23 11:52:48;;;;;;;0.67;0.67;;;;;;;;;;5053350;28;20298;-70
2022/02/23 11:55:16;;;;;;;6.07;1.23;;;;;;;;;;5057808;28;20203;-71
2022/02/23 11:57:47;;;;;;;0.30;0.30;;;;;;;;;;5051592;28;20608;-72
2022/02/23 12:00:15;;;;;;;0.60;0.60;;;;;;;;;;5060333;28;20333;-72
2022/02/23 12:02:43;;;;;;;1.13;0.53;;;;;;;;;;5052826;28;20199;-73
2022/02/23 12:05:30;;;;;;;1.17;1.07;;;;;;;;;;5052162;28;20192;-71
2022/02/23 12:07:59;;;;;;;0.07;0.07;;;;;;;;;;5052399;28;20194;-71
2022/02/23 12:10:31;;;;;;;0.80;0.80;;;;;;;;;;5048532;28;20187;-74
2022/02/23 12:12:59;;;;;;;1.40;1.00;;;;;;;;;;5056168;28;20198;-71
2022/02/23 12:15:38;;;;;;;16.93;1.77;;;;;;;;;;5053380;28;20658;-74
2022/02/23 12:18:09;;;;;;;0.43;0.37;;;;;;;;;;5052244;28;20249;-70
2022/02/23 12:20:51;;;;;;;4.43;1.33;;;;;;;;;;5047628;28;20223;-69
2022/02/23 12:23:33;;;;;;;0.83;0.47;;;;;;;;;;5052472;28;20199;-71
2022/02/23 12:26:11;;;;;;;0.50;0.50;;;;;;;;;;5052948;28;20191;-74
2022/02/23 12:28:40;;;;;;;0.67;0.43;;;;;;;;;;5050132;28;20675;-70
2022/02/23 12:31:09;;;;;;;0.33;0.20;;;;;;;;;;5055525;28;20199;-71
2022/02/23 12:33:38;;;;;;;3.20;1.17;;;;;;;;;;5050969;28;20562;-72
2022/02/23 12:36:07;;;;;;;0.83;0.83;;;;;;;;;;5059877;28;20206;-72
2022/02/23 12:38:36;;;;;;;0.50;0.30;;;;;;;;;;5055191;28;20239;-71
2022/02/23 12:41:10;;;;;;;0.83;0.30;;;;;;;;;;5055570;28;20234;-71
2022/02/23 12:43:37;;;;;;;1.40;0.70;;;;;;;;;;5054952;28;20199;-70
2022/02/23 12:46:05;;;;;;;3.93;1.20;;;;;;;;;;5054795;28;20208;-73
2022/02/23 12:48:34;;;;;;;5.83;0.77;;;;;;;;;;5052805;28;20206;-72
2022/02/23 12:51:02;;;;;;;0.10;0.10;;;;;;;;;;5060764;28;20199;-72
2022/02/23 12:53:33;;;;;;;5.63;0.63;;;;;;;;;;5058511;28;20190;-71
2022/02/23 12:56:15;;;;;;;1.03;0.97;;;;;;;;;;5071100;28;20674;-71
2022/02/23 12:58:42;;;;;;;0.40;0.40;;;;;;;;;;5067935;28;20201;-70
2022/02/23 13:01:09;;;;;;;1.23;0.90;;;;;;;;;;5066077;28;20227;-71
2022/02/23 13:03:37;;;;;;;1.17;1.07;;;;;;;;;;5058811;28;20200;-69
2022/02/23 13:06:09;;;;;;;1.27;0.30;;;;;;;;;;5051241;28;20206;-70
2022/02/23 13:08:36;;;;;;;5.83;1.20;;;;;;;;;;5051660;28;20210;-69
2022/02/23 13:11:05;;;;;;;2.80;0.90;;;;;;;;;;5052638;28;20202;-69
2022/02/23 13:13:36;;;;;;;0.80;0.70;;;;;;;;;;5054242;28;20656;-72
2022/02/23 13:16:04;;;;;;;0.40;0.30;;;;;;;;;;5059998;28;20199;-71
2022/02/23 13:18:31;;;;;;;0.40;0.37;;;;;;;;;;5055688;28;20191;-75
2022/02/23 13:21:17;;;;;;;0.17;0.17;;;;;;;;;;5050966;28;20230;-71
2022/02/23 13:23:51;;;;;;;0.27;0.17;;;;;;;;;;5050402;28;20207;-72
2022/02/23 13:26:20;;;;;;;3.00;0.37;;;;;;;;;;5051322;28;20572;-73
2022/02/23 13:29:05;;;;;;;0.00;0.00;;;;;;;;;;5055358;28;20210;-69
2022/02/23 13:31:40;;;;;;;0.30;0.30;;;;;;;;;;5054684;28;20206;-72
2022/02/23 13:34:15;;;;;;;0.00;0.00;;;;;;;;;;5059106;28;20202;-70
2022/02/23 13:36:42;;;;;;;0.93;0.33;;;;;;;;;;5062849;28;20636;-70
2022/02/23 13:39:20;;;;;;;5.10;0.53;;;;;;;;;;5050395;28;20719;-71
2022/02/23 13:41:55;;;;;;;2.07;0.40;;;;;;;;;;5053808;28;20226;-71
2022/02/23 13:44:24;;;;;;;0.13;0.10;;;;;;;;;;5056003;28;20210;-71
2022/02/23 13:46:58;;;;;;;0.10;0.10;;;;;;;;;;5050699;28;20200;-71
2022/02/23 13:49:26;;;;;;;0.20;0.20;;;;;;;;;;5052808;28;20194;-71
2022/02/23 13:51:53;;;;;;;1.10;0.73;;;;;;;;;;5068204;28;20668;-70
2022/02/23 13:54:21;;;;;;;0.80;0.13;;;;;;;;;;5060672;28;20195;-71
2022/02/23 13:56:49;;;;;;;0.47;0.47;;;;;;;;;;5052439;28;20195;-72
2022/02/23 13:59:19;;;;;;;1.10;0.90;;;;;;;;;;5055371;28;20219;-71
2022/02/23 14:02:06;;;;;;;0.30;0.20;;;;;;;;;;5072996;28;20218;-72
2022/02/23 14:04:38;;;;;;;3.90;0.67;;;;;;;;;;5065576;28;20281;-72
2022/02/23 14:07:05;;;;;;;0.60;0.60;;;;;;;;;;5061842;28;20206;-72
2022/02/23 14:09:36;;;;;;;4.07;0.97;;;;;;;;;;5054886;28;20203;-71
2022/02/23 14:12:04;;;;;;;0.00;0.00;;;;;;;;;;5074615;28;20664;-70
2022/02/23 14:14:38;;;;;;;0.10;0.00;;;;;;;;;;5058977;28;20202;-70
2022/02/23 14:17:18;;;;;;;0.00;0.00;;;;;;;;;;5055116;28;20211;-71
2022/02/23 14:19:46;;;;;;;0.00;0.00;;;;;;;;;;5055447;28;20216;-71
2022/02/23 14:22:19;;;;;;;1.07;0.47;;;;;;;;;;5058825;28;20219;-71
2022/02/23 14:24:56;;;;;;;0.50;0.13;;;;;;;;;;5073515;28;20199;-71
2022/02/23 14:27:27;;;;;;;4.90;0.87;;;;;;;;;;5074587;28;20195;-71
2022/02/23 14:29:57;;;;;;;0.10;0.10;;;;;;;;;;5073867;28;20199;-71
2022/02/23 14:32:26;;;;;;;2.73;2.50;;;;;;;;;;5060323;28;20200;-71
2022/02/23 14:34:56;;;;;;;1.40;0.73;;;;;;;;;;5058672;28;20199;-70
2022/02/23 14:37:25;;;;;;;0.27;0.23;;;;;;;;;;5054457;28;20196;-71
2022/02/23 14:39:53;;;;;;;4.53;0.10;;;;;;;;;;5054800;28;20726;-71
2022/02/23 14:42:20;;;;;;;0.23;0.20;;;;;;;;;;5053821;28;20227;-71
2022/02/23 14:44:48;;;;;;;1.60;1.50;;;;;;;;;;5054308;28;20290;-71
2022/02/23 14:47:16;;;;;;;0.63;0.30;;;;;;;;;;5054292;28;20195;-71
2022/02/23 14:49:44;;;;;;;0.50;0.50;;;;;;;;;;5054805;28;20202;-71
2022/02/23 14:52:11;;;;;;;0.83;0.40;;;;;;;;;;5057400;28;20207;-71
2022/02/23 14:54:40;;;;;;;0.10;0.10;;;;;;;;;;5064120;28;20241;-71
2022/02/23 14:57:10;;;;;;;0.20;0.20;;;;;;;;;;5055253;28;20263;-71
2022/02/23 14:59:38;;;;;;;0.20;0.10;;;;;;;;;;5056752;28;20200;-72
2022/02/23 15:02:07;;;;;;;0.10;0.00;;;;;;;;;;5057105;28;20732;-72
2022/02/23 15:04:36;;;;;;;3.30;1.00;;;;;;;;;;5052832;28;20203;-74
2022/02/23 15:07:04;;;;;;;2.93;0.77;;;;;;;;;;5053373;28;20199;-71
2022/02/23 15:09:31;;;;;;;1.70;0.43;;;;;;;;;;5056078;28;20211;-71
2022/02/23 15:11:59;;;;;;;0.03;0.03;;;;;;;;;;5061173;28;20199;-71
2022/02/23 15:14:26;;;;;;;1.13;0.13;;;;;;;;;;5060818;28;20199;-71
2022/02/23 15:16:54;;;;;;;0.67;0.43;;;;;;;;;;5059395;28;20204;-70
2022/02/23 15:19:22;;;;;;;0.90;0.80;;;;;;;;;;5071079;28;20199;-71
2022/02/23 15:21:55;;;;;;;0.03;0.03;;;;;;;;;;5056864;28;20774;-73
2022/02/23 15:24:23;;;;;;;0.20;0.20;;;;;;;;;;5053293;28;20196;-71
2022/02/23 15:26:50;;;;;;;1.70;0.60;;;;;;;;;;5054498;28;20191;-72
2022/02/23 15:29:17;;;;;;;0.57;0.30;;;;;;;;;;5051291;28;20258;-70
2022/02/23 15:31:46;;;;;;;0.37;0.37;;;;;;;;;;5050247;28;20566;-73
2022/02/23 15:34:13;;;;;;;1.00;0.70;;;;;;;;;;5055653;28;20223;-70
2022/02/23 15:36:41;;;;;;;0.07;0.07;;;;;;;;;;5053080;28;20196;-70
2022/02/23 15:39:10;;;;;;;0.20;0.17;;;;;;;;;;5058632;28;20301;-72
2022/02/23 15:41:37;;;;;;;0.07;0.07;;;;;;;;;;5053756;28;20588;-72
2022/02/23 15:44:05;;;;;;;0.97;0.30;;;;;;;;;;5053127;28;20219;-72
2022/02/23 15:46:33;;;;;;;0.00;0.00;;;;;;;;;;5058002;28;20205;-70
2022/02/23 15:49:00;;;;;;;3.30;0.93;;;;;;;;;;5056802;28;20206;-74
2022/02/23 15:51:27;;;;;;;0.00;0.00;;;;;;;;;;5069157;28;20191;-68
2022/02/23 15:53:55;;;;;;;0.80;0.40;;;;;;;;;;5064131;28;20202;-69
2022/02/23 15:56:24;;;;;;;0.77;0.30;;;;;;;;;;5064738;28;20199;-70
2022/02/23 15:58:51;;;;;;;0.33;0.33;;;;;;;;;;5060975;28;20222;-70
2022/02/23 16:01:22;;;;;;;0.77;0.10;;;;;;;;;;5072814;28;20226;-69
2022/02/23 16:03:50;;;;;;;1.10;1.10;;;;;;;;;;5059645;28;20645;-70
2022/02/23 16:06:19;;;;;;;0.07;0.07;;;;;;;;;;5058918;28;20206;-70
2022/02/23 16:08:47;;;;;;;0.20;0.17;;;;;;;;;;5058463;28;20210;-70
2022/02/23 16:11:14;;;;;;;0.00;0.00;;;;;;;;;;5058046;28;20199;-71
2022/02/23 16:13:43;;;;;;;0.00;0.00;;;;;;;;;;5056459;28;20207;-70
2022/02/23 16:16:10;;;;;;;0.00;0.00;;;;;;;;;;5059322;28;20199;-68
2022/02/23 16:18:38;;;;;;;2.63;2.43;;;;;;;;;;5057232;28;20260;-69
2022/02/23 16:21:07;;;;;;;0.80;0.70;;;;;;;;;;5055611;28;20253;-70
2022/02/23 16:23:34;;;;;;;0.00;0.00;;;;;;;;;;5055510;28;20214;-69
2022/02/23 16:26:01;;;;;;;0.00;0.00;;;;;;;;;;5056906;28;21084;-70
2022/02/23 16:28:29;;;;;;;0.03;0.03;;;;;;;;;;5058599;28;20702;-69
2022/02/23 16:30:58;;;;;;;2.77;0.60;;;;;;;;;;5057679;28;20194;-72
2022/02/23 16:33:25;;;;;;;0.00;0.00;;;;;;;;;;5056348;28;20219;-71
2022/02/23 16:35:52;;;;;;;0.10;0.10;;;;;;;;;;5063032;28;20199;-69
2022/02/23 16:38:20;;;;;;;0.20;0.10;;;;;;;;;;5068138;28;20770;-69
2022/02/23 16:40:47;;;;;;;0.37;0.37;;;;;;;;;;5067945;28;20206;-70
2022/02/23 16:43:15;;;;;;;0.20;0.20;;;;;;;;;;5066986;28;20226;-74
2022/02/23 16:45:44;;;;;;;0.70;0.40;;;;;;;;;;5066967;28;20210;-70
2022/02/23 16:48:15;;;;;;;0.17;0.07;;;;;;;;;;5068220;28;20221;-70
2022/02/23 16:50:42;;;;;;;0.00;0.00;;;;;;;;;;5063585;28;20203;-70
2022/02/23 16:53:10;;;;;;;0.00;0.00;;;;;;;;;;5069115;28;20248;-70
2022/02/23 16:55:37;;;;;;;0.20;0.20;;;;;;;;;;5066635;28;20235;-70
2022/02/23 16:58:05;;;;;;;0.57;0.53;;;;;;;;;;5068959;28;20201;-71
2022/02/23 17:00:32;;;;;;;0.00;0.00;;;;;;;;;;5066663;28;20203;-71
2022/02/23 17:02:59;;;;;;;0.57;0.57;;;;;;;;;;5056393;28;20230;-71
2022/02/23 17:05:28;;;;;;;0.37;0.20;;;;;;;;;;5050615;28;20192;-71
2022/02/23 17:07:56;;;;;;;0.00;0.00;;;;;;;;;;5054364;28;20206;-69
2022/02/23 17:10:23;;;;;;;0.10;0.10;;;;;;;;;;5054873;28;20207;-70
2022/02/23 17:12:51;;;;;;;0.13;0.13;;;;;;;;;;5050564;28;20194;-70
2022/02/23 17:15:19;;;;;;;0.37;0.30;;;;;;;;;;5051726;28;20284;-71
2022/02/23 17:17:47;;;;;;;0.10;0.10;;;;;;;;;;5051948;28;20218;-68
2022/02/23 17:20:14;;;;;;;1.20;1.10;;;;;;;;;;5056795;28;20206;-71
2022/02/23 17:22:43;;;;;;;0.10;0.10;;;;;;;;;;5052744;28;20226;-68
2022/02/23 17:25:11;;;;;;;0.17;0.07;;;;;;;;;;5050529;28;20191;-68
2022/02/23 17:27:38;;;;;;;1.03;0.30;;;;;;;;;;5048822;28;20195;-68
2022/02/23 17:30:07;;;;;;;0.10;0.10;;;;;;;;;;5059496;28;20208;-68
2022/02/23 17:32:34;;;;;;;0.17;0.17;;;;;;;;;;5053881;28;20207;-71
2022/02/23 17:35:01;;;;;;;0.40;0.40;;;;;;;;;;5048886;28;20200;-69
2022/02/23 17:37:29;;;;;;;0.50;0.50;;;;;;;;;;5006561;28;20220;-72
2022/02/23 17:39:57;;;;;;;6.33;0.97;;;;;;;;;;4995617;28;20300;-70
2022/02/23 17:42:25;;;;;;;0.30;0.30;;;;;;;;;;5007141;28;20229;-72
2022/02/23 17:44:52;;;;;;;0.10;0.10;;;;;;;;;;5026041;28;20209;-69
2022/02/23 17:47:20;;;;;;;0.00;0.00;;;;;;;;;;5021257;28;20208;-70
2022/02/23 17:49:48;;;;;;;0.50;0.50;;;;;;;;;;5015653;28;20657;-68
2022/02/23 17:52:21;;;;;;;0.77;0.60;;;;;;;;;;5017596;28;20602;-68
2022/02/23 17:54:56;;;;;;;0.10;0.03;;;;;;;;;;5017625;28;20315;-69
2022/02/23 17:57:25;;;;;;;7.93;0.70;;;;;;;;;;5022130;28;22671;-69
2022/02/23 17:59:53;;;;;;;0.00;0.00;;;;;;;;;;5019145;28;20214;-69
2022/02/23 18:02:20;;;;;;;0.10;0.10;;;;;;;;;;5020282;28;20215;-69
2022/02/23 18:04:47;;;;;;;0.50;0.50;;;;;;;;;;5021058;28;20569;-70
2022/02/23 18:07:15;;;;;;;5.07;1.33;;;;;;;;;;5021923;28;21532;-69
2022/02/23 18:09:42;;;;;;;0.67;0.33;;;;;;;;;;5020952;28;20204;-71
2022/02/23 18:12:10;;;;;;;1.60;0.67;;;;;;;;;;5020486;28;20562;-69
2022/02/23 18:14:39;;;;;;;0.17;0.17;;;;;;;;;;5021261;28;20701;-68
2022/02/23 18:17:08;;;;;;;0.07;0.07;;;;;;;;;;5021442;28;20577;-69
2022/02/23 18:19:36;;;;;;;0.50;0.23;;;;;;;;;;5023761;28;20197;-68
2022/02/23 18:22:03;;;;;;;0.50;0.50;;;;;;;;;;5020906;28;20258;-69
2022/02/23 18:24:31;;;;;;;0.40;0.40;;;;;;;;;;5022841;28;20192;-70
2022/02/23 18:26:58;;;;;;;2.63;1.20;;;;;;;;;;5019767;28;20196;-68
2022/02/23 18:29:25;;;;;;;0.63;0.20;;;;;;;;;;5019575;28;20196;-70
2022/02/23 18:31:56;;;;;;;0.20;0.20;;;;;;;;;;5019676;28;20200;-69
2022/02/23 18:34:23;;;;;;;0.30;0.30;;;;;;;;;;5020534;28;20199;-70
2022/02/23 18:36:51;;;;;;;1.70;0.90;;;;;;;;;;5020408;28;20212;-72
2022/02/23 18:39:18;;;;;;;0.67;0.60;;;;;;;;;;5021265;28;20596;-71
2022/02/23 18:41:46;;;;;;;2.23;0.63;;;;;;;;;;5020247;28;20657;-70
2022/02/23 18:44:13;;;;;;;1.53;0.30;;;;;;;;;;5019843;28;20792;-69
2022/02/23 18:46:44;;;;;;;0.60;0.37;;;;;;;;;;5022968;28;20203;-69
2022/02/23 18:49:13;;;;;;;0.97;0.33;;;;;;;;;;5023402;28;20203;-69
2022/02/23 18:51:40;;;;;;;0.00;0.00;;;;;;;;;;5024883;28;20204;-69
2022/02/23 18:54:08;;;;;;;1.30;0.50;;;;;;;;;;5022200;28;20254;-69
2022/02/23 18:56:37;;;;;;;0.40;0.40;;;;;;;;;;5024785;28;20204;-69
2022/02/23 18:59:05;;;;;;;0.73;0.70;;;;;;;;;;5016221;28;20200;-70
2022/02/23 19:01:32;;;;;;;0.53;0.53;;;;;;;;;;5019995;28;20569;-69
2022/02/23 19:04:01;;;;;;;0.30;0.30;;;;;;;;;;5023279;28;20663;-70
2022/02/23 19:06:31;;;;;;;0.73;0.30;;;;;;;;;;5027082;28;20200;-68
2022/02/23 19:08:58;;;;;;;3.63;0.40;;;;;;;;;;5018461;28;20200;-69
2022/02/23 19:11:26;;;;;;;2.83;0.83;;;;;;;;;;5024735;28;20200;-69
2022/02/23 19:13:53;;;;;;;1.80;0.87;;;;;;;;;;5033028;28;20207;-69
2022/02/23 19:16:21;;;;;;;0.63;0.63;;;;;;;;;;5032604;28;20735;-69
2022/02/23 19:18:48;;;;;;;1.90;0.77;;;;;;;;;;5035628;28;20684;-69
2022/02/23 19:21:16;;;;;;;0.30;0.30;;;;;;;;;;5012782;28;20666;-70
2022/02/23 19:23:45;;;;;;;3.27;1.07;;;;;;;;;;5027098;28;20228;-69
2022/02/23 19:26:13;;;;;;;0.00;0.00;;;;;;;;;;5028377;28;20192;-69
2022/02/23 19:28:43;;;;;;;0.47;0.47;;;;;;;;;;5025889;28;20946;-68
2022/02/23 19:31:10;;;;;;;0.00;0.00;;;;;;;;;;5022797;28;20193;-72
2022/02/23 19:33:39;;;;;;;0.43;0.43;;;;;;;;;;5023866;28;20287;-70
2022/02/23 19:36:07;;;;;;;0.00;0.00;;;;;;;;;;5023173;28;20236;-70
2022/02/23 19:38:35;;;;;;;0.20;0.20;;;;;;;;;;5027755;28;20645;-69
2022/02/23 19:41:03;;;;;;;0.43;0.43;;;;;;;;;;5030036;28;20720;-70
2022/02/23 19:43:31;;;;;;;1.53;0.57;;;;;;;;;;5025710;28;20236;-71
2022/02/23 19:45:58;;;;;;;8.67;0.57;;;;;;;;;;5021110;28;20554;-69
2022/02/23 19:48:25;;;;;;;0.10;0.10;;;;;;;;;;5022181;28;20210;-69
2022/02/23 19:50:53;;;;;;;0.20;0.10;;;;;;;;;;5022129;28;20217;-72
2022/02/23 19:53:20;;;;;;;0.00;0.00;;;;;;;;;;5016288;28;20192;-68
2022/02/23 19:55:49;;;;;;;0.00;0.00;;;;;;;;;;5012953;28;20275;-73
2022/02/23 19:58:19;;;;;;;0.00;0.00;;;;;;;;;;5015490;28;20208;-70
2022/02/23 20:00:47;;;;;;;0.43;0.43;;;;;;;;;;5014700;28;20621;-71
2022/02/23 20:03:14;;;;;;;0.00;0.00;;;;;;;;;;5023252;28;20332;-69
2022/02/23 20:05:41;;;;;;;0.00;0.00;;;;;;;;;;5021403;28;20220;-69
2022/02/23 20:08:09;;;;;;;0.13;0.13;;;;;;;;;;5021987;28;20565;-69